createdAt,value
2017-08-07T00:02:13.527Z,15.60
2017-08-07T00:04:43.686Z,15.70
2017-08-07T00:07:13.503Z,15.70
2017-08-07T00:09:43.452Z,15.80
2017-08-07T00:12:13.077Z,15.80
2017-08-07T00:14:44.299Z,15.60
2017-08-07T00:17:14.189Z,15.60
2017-08-07T00:19:43.749Z,15.70
2017-08-07T00:22:13.544Z,15.80
2017-08-07T00:24:43.178Z,15.80
2017-08-07T00:27:12.754Z,15.80
2017-08-07T00:29:42.308Z,15.90
2017-08-07T00:32:12.458Z,15.90
2017-08-07T00:34:42.319Z,15.90
2017-08-07T00:37:11.882Z,15.90
2017-08-07T00:39:41.544Z,15.60
2017-08-07T00:42:11.382Z,15.70
2017-08-07T00:44:41.299Z,15.70
2017-08-07T00:47:11.175Z,15.60
2017-08-07T00:49:40.695Z,15.50
2017-08-07T00:52:10.247Z,15.20
2017-08-07T00:54:40.054Z,15.10
2017-08-07T00:57:09.543Z,15.10
2017-08-07T00:59:39.035Z,15.20
2017-08-07T01:02:08.899Z,15.40
2017-08-07T01:04:38.518Z,15.40
2017-08-07T01:07:08.311Z,15.40
2017-08-07T01:09:37.859Z,15.60
2017-08-07T01:12:07.415Z,15.60
2017-08-07T01:14:37.235Z,15.60
2017-08-07T01:17:07.311Z,15.60
2017-08-07T01:19:37.130Z,15.50
2017-08-07T01:22:06.863Z,15.50
2017-08-07T01:24:37.004Z,15.40
2017-08-07T01:27:07.569Z,15.40
2017-08-07T01:29:37.973Z,15.40
2017-08-07T01:32:08.154Z,15.40
2017-08-07T01:34:38.478Z,15.40
2017-08-07T01:37:08.969Z,15.40
2017-08-07T01:39:39.302Z,15.30
2017-08-07T01:42:09.536Z,15.30
2017-08-07T01:44:39.555Z,15.20
2017-08-07T01:47:09.821Z,15.30
2017-08-07T01:49:40.696Z,15.40
2017-08-07T01:52:11.144Z,15.40
2017-08-07T01:54:41.517Z,15.50
2017-08-07T01:57:11.403Z,15.60
2017-08-07T01:59:41.918Z,15.50
2017-08-07T02:02:11.691Z,15.20
2017-08-07T02:04:42.641Z,14.90
2017-08-07T02:07:13.111Z,14.90
2017-08-07T02:09:42.909Z,14.80
2017-08-07T02:12:13.012Z,14.50
2017-08-07T02:14:42.784Z,14.70
2017-08-07T02:17:13.272Z,14.90
2017-08-07T02:19:44.272Z,15.00
2017-08-07T02:22:15.177Z,15.10
2017-08-07T02:24:44.851Z,15.10
2017-08-07T02:27:14.703Z,15.00
2017-08-07T02:29:44.207Z,15.10
2017-08-07T02:33:43.346Z,15.00
2017-08-07T02:36:12.856Z,15.00
2017-08-07T02:38:42.420Z,14.70
2017-08-07T02:41:12.460Z,14.60
2017-08-07T02:43:44.001Z,14.70
2017-08-07T02:46:13.878Z,14.70
2017-08-07T02:48:43.887Z,14.70
2017-08-07T02:51:13.946Z,14.80
2017-08-07T02:53:43.907Z,14.70
2017-08-07T02:56:14.008Z,14.70
2017-08-07T02:58:44.751Z,14.50
2017-08-07T03:01:15.015Z,14.50
2017-08-07T03:03:45.628Z,14.40
2017-08-07T03:06:15.455Z,14.50
2017-08-07T03:08:45.128Z,14.30
2017-08-07T03:11:14.827Z,14.20
2017-08-07T03:13:44.616Z,14.00
2017-08-07T03:16:14.997Z,13.90
2017-08-07T03:18:45.047Z,14.10
2017-08-07T03:21:15.025Z,14.30
2017-08-07T03:23:45.415Z,14.30
2017-08-07T03:26:15.280Z,14.00
2017-08-07T03:28:44.930Z,14.10
2017-08-07T03:31:15.299Z,14.30
2017-08-07T03:33:45.451Z,14.40
2017-08-07T03:36:15.258Z,14.40
2017-08-07T03:38:45.239Z,14.50
2017-08-07T03:43:13.018Z,14.60
2017-08-07T03:45:43.465Z,14.70
2017-08-07T03:48:13.711Z,14.70
2017-08-07T03:50:45.885Z,14.50
2017-08-07T03:53:15.679Z,14.40
2017-08-07T03:55:45.563Z,14.50
2017-08-07T03:58:16.710Z,14.70
2017-08-07T04:00:46.867Z,14.70
2017-08-07T04:03:17.430Z,14.50
2017-08-07T04:05:47.772Z,14.60
2017-08-07T04:08:17.632Z,14.70
2017-08-07T04:10:47.927Z,14.60
2017-08-07T04:13:17.735Z,14.70
2017-08-07T04:15:47.712Z,14.80
2017-08-07T04:18:17.260Z,14.80
2017-08-07T04:20:47.208Z,14.80
2017-08-07T04:23:17.506Z,14.80
2017-08-07T04:25:48.149Z,14.90
2017-08-07T04:28:17.851Z,14.90
2017-08-07T04:30:47.836Z,14.90
2017-08-07T04:33:17.451Z,15.00
2017-08-07T04:35:47.077Z,14.90
2017-08-07T04:38:16.614Z,15.00
2017-08-07T04:40:46.491Z,15.00
2017-08-07T04:43:16.333Z,15.00
2017-08-07T04:45:45.916Z,15.00
2017-08-07T04:48:16.609Z,14.80
2017-08-07T04:50:51.667Z,15.00
2017-08-07T04:53:21.600Z,15.00
2017-08-07T04:55:51.340Z,15.10
2017-08-07T04:58:20.943Z,15.10
2017-08-07T05:00:51.150Z,15.20
2017-08-07T05:03:21.415Z,14.90
2017-08-07T05:05:51.216Z,15.10
2017-08-07T05:08:20.976Z,15.20
2017-08-07T05:10:51.329Z,15.20
2017-08-07T05:13:20.919Z,15.40
2017-08-07T05:15:50.819Z,15.60
2017-08-07T05:18:20.607Z,15.80
2017-08-07T05:20:50.186Z,15.90
2017-08-07T05:23:20.891Z,16.00
2017-08-07T05:25:51.060Z,16.10
2017-08-07T05:28:20.939Z,16.30
2017-08-07T05:30:51.601Z,16.30
2017-08-07T05:33:25.387Z,16.40
2017-08-07T05:35:58.050Z,16.50
2017-08-07T05:38:33.849Z,16.70
2017-08-07T05:41:07.767Z,16.50
2017-08-07T05:43:38.381Z,16.80
2017-08-07T05:46:12.855Z,16.70
2017-08-07T05:48:44.764Z,16.70
2017-08-07T05:51:23.358Z,17.00
2017-08-07T05:53:54.283Z,17.20
2017-08-07T05:56:24.396Z,17.10
2017-08-07T05:58:54.004Z,17.10
2017-08-07T06:01:23.891Z,17.10
2017-08-07T06:03:53.853Z,17.10
2017-08-07T06:06:40.305Z,17.20
2017-08-07T06:09:13.101Z,17.50
2017-08-07T06:11:51.572Z,17.50
2017-08-07T06:17:35.506Z,17.40
2017-08-07T06:20:06.932Z,17.50
2017-08-07T06:22:36.990Z,17.40
2017-08-07T06:25:10.372Z,17.30
2017-08-07T06:27:40.075Z,17.20
2017-08-07T06:30:12.553Z,17.20
2017-08-07T06:32:45.109Z,17.10
2017-08-07T06:35:16.658Z,17.30
2017-08-07T06:37:46.660Z,17.80
2017-08-07T06:40:32.103Z,18.80
2017-08-07T06:43:01.854Z,21.00
2017-08-07T06:46:05.504Z,23.40
2017-08-07T06:48:38.200Z,26.00
2017-08-07T06:51:08.881Z,28.20
2017-08-07T06:53:38.759Z,29.40
2017-08-07T06:56:08.869Z,30.10
2017-08-07T06:58:40.904Z,29.80
2017-08-07T07:01:14.661Z,31.30
2017-08-07T07:03:49.256Z,32.70
2017-08-07T07:06:36.154Z,32.90
2017-08-07T07:09:11.772Z,32.80
2017-08-07T07:11:43.633Z,32.20
2017-08-07T07:14:15.734Z,31.50
2017-08-07T07:16:47.062Z,31.20
2017-08-07T07:19:34.867Z,30.80
2017-08-07T07:22:06.729Z,31.00
2017-08-07T07:24:38.420Z,30.90
2017-08-07T07:27:08.165Z,31.20
2017-08-07T07:29:38.963Z,31.00
2017-08-07T07:32:09.871Z,32.30
2017-08-07T07:34:42.392Z,33.20
2017-08-07T07:37:20.874Z,33.20
2017-08-07T07:39:51.912Z,32.90
2017-08-07T07:42:25.574Z,35.20
2017-08-07T07:44:58.194Z,37.00
2017-08-07T07:47:28.713Z,37.20
2017-08-07T07:50:00.890Z,37.70
2017-08-07T07:52:31.848Z,34.80
2017-08-07T07:55:03.690Z,34.80
2017-08-07T07:57:37.704Z,34.20
2017-08-07T08:03:30.169Z,34.80
2017-08-07T08:06:02.036Z,36.50
2017-08-07T08:08:35.192Z,37.90
2017-08-07T08:11:15.916Z,37.00
2017-08-07T08:16:38.698Z,33.60
2017-08-07T08:19:09.503Z,25.40
2017-08-07T08:21:39.653Z,26.10
2017-08-07T08:24:20.872Z,26.90
2017-08-07T08:27:00.790Z,27.40
2017-08-07T08:29:42.831Z,29.50
2017-08-07T08:34:01.319Z,28.60
2017-08-07T08:36:38.123Z,27.00
2017-08-07T08:39:10.203Z,29.70
2017-08-07T08:47:47.127Z,29.80
2017-08-07T08:50:17.248Z,31.60
2017-08-07T08:55:29.484Z,25.80
2017-08-07T08:58:00.545Z,28.20
2017-08-07T09:03:32.038Z,31.30
2017-08-07T09:06:05.113Z,31.90
2017-08-07T09:08:38.910Z,31.80
2017-08-07T09:11:09.057Z,27.90
2017-08-07T09:20:04.327Z,28.80
2017-08-07T09:22:36.717Z,30.10
2017-08-07T09:25:17.959Z,29.10
2017-08-07T09:27:48.117Z,28.70
2017-08-07T09:30:19.421Z,28.50
2017-08-07T09:32:49.678Z,27.20
2017-08-07T09:35:20.629Z,27.40
2017-08-07T09:37:50.912Z,27.90
2017-08-07T09:40:20.620Z,28.50
2017-08-07T09:42:51.701Z,27.90
2017-08-07T09:45:26.273Z,26.70
2017-08-07T09:47:57.241Z,26.70
2017-08-07T09:53:30.607Z,25.50
2017-08-07T09:56:01.271Z,23.60
2017-08-07T09:58:36.169Z,24.60
2017-08-07T10:04:13.053Z,22.20
2017-08-07T10:06:54.857Z,23.00
2017-08-07T10:09:27.634Z,23.00
2017-08-07T10:12:00.012Z,23.50
2017-08-07T10:14:30.053Z,22.60
2017-08-07T10:17:00.250Z,22.20
2017-08-07T10:19:33.836Z,23.10
2017-08-07T10:22:06.942Z,23.00
2017-08-07T10:24:40.426Z,23.30
2017-08-07T10:27:12.432Z,23.80
2017-08-07T10:29:45.660Z,24.50
2017-08-07T10:38:21.640Z,22.60
2017-08-07T10:40:58.699Z,22.50
2017-08-07T10:43:48.893Z,21.40
2017-08-07T10:46:22.731Z,22.90
2017-08-07T10:51:54.876Z,22.60
2017-08-07T10:54:26.900Z,23.10
2017-08-07T10:56:57.518Z,23.50
2017-08-07T10:59:29.905Z,24.70
2017-08-07T11:02:08.993Z,24.30
2017-08-07T11:04:48.511Z,23.80
2017-08-07T11:07:40.738Z,23.70
2017-08-07T11:14:13.904Z,25.90
2017-08-07T11:16:43.836Z,27.70
2017-08-07T11:21:56.695Z,24.50
2017-08-07T11:24:29.585Z,25.00
2017-08-07T11:27:07.186Z,26.70
2017-08-07T11:29:39.058Z,27.10
2017-08-07T11:32:10.487Z,27.20
2017-08-07T11:34:40.795Z,26.10
2017-08-07T11:37:12.565Z,25.90
2017-08-07T11:39:45.865Z,25.10
2017-08-07T11:42:16.403Z,25.00
2017-08-07T11:44:46.539Z,24.90
2017-08-07T11:50:33.932Z,24.60
2017-08-07T11:53:12.950Z,24.50
2017-08-07T11:58:49.661Z,24.00
2017-08-07T12:01:25.120Z,24.70
2017-08-07T12:03:57.075Z,24.30
2017-08-07T12:06:27.765Z,23.70
2017-08-07T12:09:01.652Z,23.80
2017-08-07T12:11:39.868Z,24.20
2017-08-07T12:14:09.980Z,24.10
2017-08-07T12:16:40.120Z,24.20
2017-08-07T12:19:12.423Z,24.70
2017-08-07T12:21:42.777Z,24.50
2017-08-07T12:24:37.448Z,24.60
2017-08-07T12:27:07.925Z,24.30
2017-08-07T12:29:38.618Z,24.60
2017-08-07T12:32:08.989Z,24.70
2017-08-07T12:34:40.251Z,24.80
2017-08-07T12:37:11.158Z,25.00
2017-08-07T12:39:42.705Z,24.30
2017-08-07T12:42:27.109Z,24.30
2017-08-07T12:44:57.439Z,23.40
2017-08-07T12:47:28.155Z,23.50
2017-08-07T12:49:59.033Z,23.50
2017-08-07T12:52:30.559Z,23.60
2017-08-07T12:55:10.229Z,23.90
2017-08-07T12:57:40.848Z,23.90
2017-08-07T13:00:16.848Z,23.80
2017-08-07T13:02:47.460Z,23.30
2017-08-07T13:05:17.463Z,23.80
2017-08-07T13:07:47.472Z,24.40
2017-08-07T13:10:20.236Z,23.80
2017-08-07T13:12:53.008Z,23.90
2017-08-07T13:15:33.915Z,23.90
2017-08-07T13:18:03.739Z,24.20
2017-08-07T13:20:36.195Z,24.20
2017-08-07T13:23:06.890Z,24.50
2017-08-07T13:25:43.009Z,24.80
2017-08-07T13:28:18.485Z,24.60
2017-08-07T13:30:49.590Z,24.80
2017-08-07T13:33:19.251Z,25.10
2017-08-07T13:35:49.484Z,25.30
2017-08-07T13:38:20.243Z,25.00
2017-08-07T13:40:51.299Z,24.40
2017-08-07T13:43:21.244Z,24.00
2017-08-07T13:45:53.113Z,23.90
2017-08-07T13:48:23.695Z,24.00
2017-08-07T13:50:54.913Z,24.30
2017-08-07T13:53:25.227Z,24.60
2017-08-07T13:55:54.823Z,24.50
2017-08-07T13:58:31.790Z,23.70
2017-08-07T14:01:01.887Z,24.00
2017-08-07T14:03:44.915Z,24.10
2017-08-07T14:06:36.597Z,24.20
2017-08-07T14:09:08.271Z,24.30
2017-08-07T14:11:39.998Z,24.50
2017-08-07T14:14:10.220Z,24.50
2017-08-07T14:16:39.881Z,24.60
2017-08-07T14:19:09.796Z,23.90
2017-08-07T14:21:53.087Z,23.70
2017-08-07T14:24:24.663Z,23.70
2017-08-07T14:26:54.324Z,23.70
2017-08-07T14:29:32.994Z,23.70
2017-08-07T14:32:04.122Z,23.90
2017-08-07T14:37:39.997Z,24.00
2017-08-07T14:40:12.355Z,23.90
2017-08-07T14:42:44.556Z,23.80
2017-08-07T14:46:50.786Z,23.80
2017-08-07T14:49:20.621Z,24.10
2017-08-07T14:51:51.020Z,23.80
2017-08-07T14:54:20.587Z,23.70
2017-08-07T14:56:50.277Z,23.90
2017-08-07T14:59:19.860Z,23.90
2017-08-07T15:01:49.479Z,23.70
2017-08-07T15:04:19.354Z,23.40
2017-08-07T15:06:49.042Z,23.50
2017-08-07T15:09:18.666Z,23.80
2017-08-07T15:11:48.466Z,23.90
2017-08-07T15:14:18.029Z,23.80
2017-08-07T15:16:47.586Z,23.80
2017-08-07T15:19:17.938Z,23.30
2017-08-07T15:21:47.525Z,23.40
2017-08-07T15:24:17.641Z,23.50
2017-08-07T15:26:47.540Z,23.40
2017-08-07T15:29:17.126Z,23.50
2017-08-07T15:31:46.763Z,23.80
2017-08-07T15:34:16.844Z,23.90
2017-08-07T15:36:48.864Z,23.40
2017-08-07T15:39:18.718Z,23.60
2017-08-07T15:41:48.539Z,23.90
2017-08-07T15:44:18.248Z,23.90
2017-08-07T15:46:48.724Z,23.70
2017-08-07T15:49:18.587Z,23.60
2017-08-07T15:51:48.231Z,23.50
2017-08-07T15:54:17.960Z,23.50
2017-08-07T15:56:48.206Z,23.50
2017-08-07T15:59:18.095Z,23.50
2017-08-07T16:01:47.645Z,23.50
2017-08-07T16:04:17.225Z,23.50
2017-08-07T16:06:51.844Z,23.40
2017-08-07T16:09:22.743Z,23.40
2017-08-07T16:11:52.492Z,23.40
2017-08-07T16:14:22.031Z,23.60
2017-08-07T16:16:52.461Z,23.30
2017-08-07T16:19:22.902Z,23.00
2017-08-07T16:21:52.619Z,23.20
2017-08-07T16:24:27.882Z,23.40
2017-08-07T16:26:58.054Z,23.30
2017-08-07T16:29:40.765Z,23.30
2017-08-07T16:32:17.037Z,23.20
2017-08-07T16:34:46.894Z,23.10
2017-08-07T16:37:16.662Z,23.00
2017-08-07T16:39:53.271Z,23.10
2017-08-07T16:42:22.870Z,23.00
2017-08-07T16:44:52.613Z,23.20
2017-08-07T16:47:37.333Z,23.30
2017-08-07T16:50:06.903Z,23.30
2017-08-07T16:52:36.948Z,23.00
2017-08-07T16:55:06.892Z,23.00
2017-08-07T16:57:36.445Z,23.00
2017-08-07T17:00:06.344Z,23.10
2017-08-07T17:02:35.979Z,23.10
2017-08-07T17:05:05.620Z,23.10
2017-08-07T17:07:35.605Z,23.20
2017-08-07T17:10:05.268Z,23.10
2017-08-07T17:12:34.846Z,23.20
2017-08-07T17:16:34.090Z,23.00
2017-08-07T17:19:04.032Z,22.90
2017-08-07T17:21:33.974Z,22.70
2017-08-07T17:24:03.636Z,22.80
2017-08-07T17:26:33.216Z,22.60
2017-08-07T17:29:03.083Z,22.40
2017-08-07T17:31:32.820Z,22.50
2017-08-07T17:34:03.012Z,22.60
2017-08-07T17:36:32.838Z,22.50
2017-08-07T17:39:02.472Z,22.60
2017-08-07T17:41:32.680Z,22.60
2017-08-07T17:44:02.357Z,22.70
2017-08-07T17:46:32.019Z,22.80
2017-08-07T17:49:01.568Z,22.70
2017-08-07T17:51:31.370Z,22.60
2017-08-07T17:54:00.985Z,22.50
2017-08-07T17:56:30.581Z,22.40
2017-08-07T17:59:00.287Z,22.30
2017-08-07T18:01:30.016Z,22.30
2017-08-07T18:03:59.839Z,22.20
2017-08-07T18:06:29.524Z,22.20
2017-08-07T18:08:59.092Z,22.20
2017-08-07T18:11:29.450Z,22.00
2017-08-07T18:13:59.402Z,21.80
2017-08-07T18:16:33.824Z,21.80
2017-08-07T18:19:04.363Z,21.50
2017-08-07T18:21:36.296Z,21.50
2017-08-07T18:24:06.931Z,21.40
2017-08-07T18:26:36.625Z,21.30
2017-08-07T18:29:06.266Z,21.40
2017-08-07T18:31:35.948Z,21.40
2017-08-07T18:34:05.797Z,21.40
2017-08-07T18:36:36.109Z,21.30
2017-08-07T18:39:06.344Z,21.30
2017-08-07T18:41:35.984Z,21.20
2017-08-07T18:44:06.037Z,21.10
2017-08-07T18:46:36.340Z,20.80
2017-08-07T18:49:06.110Z,20.80
2017-08-07T18:51:35.883Z,20.80
2017-08-07T18:54:05.646Z,20.80
2017-08-07T18:56:35.644Z,20.70
2017-08-07T18:59:05.341Z,20.60
2017-08-07T19:01:35.091Z,20.60
2017-08-07T19:04:05.304Z,20.60
2017-08-07T19:06:34.966Z,20.50
2017-08-07T19:09:05.201Z,20.40
2017-08-07T19:11:34.868Z,20.20
2017-08-07T19:14:04.537Z,20.20
2017-08-07T19:16:34.492Z,20.00
2017-08-07T19:19:04.302Z,20.00
2017-08-07T19:21:46.485Z,19.90
2017-08-07T19:24:16.141Z,19.90
2017-08-07T19:26:45.805Z,19.90
2017-08-07T19:29:15.818Z,19.80
2017-08-07T19:31:45.541Z,19.60
2017-08-07T19:34:15.219Z,19.50
2017-08-07T19:36:45.267Z,19.50
2017-08-07T19:39:15.531Z,19.50
2017-08-07T19:41:45.183Z,19.40
2017-08-07T19:44:15.135Z,19.40
2017-08-07T19:46:45.016Z,19.40
2017-08-07T19:49:14.678Z,19.40
2017-08-07T19:51:44.391Z,19.40
2017-08-07T19:54:14.118Z,19.10
2017-08-07T19:56:44.257Z,19.10
2017-08-07T19:59:15.328Z,19.20
2017-08-07T20:01:45.365Z,19.20
2017-08-07T20:04:15.148Z,19.10
2017-08-07T20:06:44.806Z,18.90
2017-08-07T20:09:14.709Z,19.00
2017-08-07T20:11:44.512Z,19.00
2017-08-07T20:14:14.146Z,19.10
2017-08-07T20:16:46.497Z,19.00
2017-08-07T20:19:17.149Z,18.80
2017-08-07T20:21:47.872Z,18.80
2017-08-07T20:24:18.061Z,18.80
2017-08-07T20:26:48.006Z,18.70
2017-08-07T20:29:18.364Z,18.80
2017-08-07T20:31:48.236Z,18.70
2017-08-07T20:34:18.015Z,18.70
2017-08-07T20:36:48.111Z,18.60
2017-08-07T20:39:17.774Z,18.60
2017-08-07T20:41:47.470Z,18.50
2017-08-07T20:44:17.144Z,18.50
2017-08-07T20:46:46.768Z,18.30
2017-08-07T20:49:16.778Z,18.30
2017-08-07T20:51:46.565Z,18.30
2017-08-07T20:54:16.521Z,18.30
2017-08-07T20:56:46.511Z,18.20
2017-08-07T20:59:17.173Z,18.10
2017-08-07T21:01:46.890Z,18.10
2017-08-07T21:04:16.520Z,18.10
2017-08-07T21:06:46.204Z,18.10
2017-08-07T21:09:16.189Z,17.80
2017-08-07T21:11:45.881Z,18.00
2017-08-07T21:14:21.631Z,18.00
2017-08-07T21:17:04.802Z,17.90
2017-08-07T21:19:34.819Z,17.90
2017-08-07T21:22:04.936Z,18.00
2017-08-07T21:24:34.826Z,17.90
2017-08-07T21:27:04.513Z,17.80
2017-08-07T21:29:34.307Z,17.50
2017-08-07T21:32:03.824Z,17.40
2017-08-07T21:34:33.670Z,17.40
2017-08-07T21:37:03.309Z,17.50
2017-08-07T21:39:33.723Z,17.80
2017-08-07T21:42:03.605Z,17.80
2017-08-07T21:44:33.559Z,17.80
2017-08-07T21:47:03.461Z,17.80
2017-08-07T21:49:33.235Z,17.70
2017-08-07T21:52:03.111Z,17.60
2017-08-07T21:54:32.935Z,17.70
2017-08-07T21:57:02.888Z,17.60
2017-08-07T21:59:32.420Z,17.70
2017-08-07T22:02:02.611Z,17.50
2017-08-07T22:04:32.252Z,17.60
2017-08-07T22:07:01.803Z,17.80
2017-08-07T22:09:35.937Z,17.80
2017-08-07T22:12:05.479Z,17.80
2017-08-07T22:14:36.776Z,17.80
2017-08-07T22:17:06.411Z,17.80
2017-08-07T22:19:35.950Z,17.80
2017-08-07T22:22:05.791Z,17.80
2017-08-07T22:24:35.792Z,17.80
2017-08-07T22:27:05.713Z,17.70
2017-08-07T22:29:36.270Z,17.70
2017-08-07T22:32:09.656Z,17.80
2017-08-07T22:34:39.508Z,17.70
2017-08-07T22:37:09.870Z,17.60
2017-08-07T22:39:39.417Z,17.60
2017-08-07T22:42:10.335Z,17.60
2017-08-07T22:44:39.866Z,17.70
2017-08-07T22:47:09.669Z,17.80
2017-08-07T22:49:44.707Z,17.80
2017-08-07T22:52:14.772Z,17.70
2017-08-07T22:54:45.090Z,17.60
2017-08-07T22:57:15.134Z,17.70
2017-08-07T22:59:44.789Z,17.70
2017-08-07T23:02:14.576Z,17.60
2017-08-07T23:04:44.155Z,17.60
2017-08-07T23:07:14.283Z,17.60
2017-08-07T23:09:44.443Z,17.60
2017-08-07T23:12:15.128Z,17.60
2017-08-07T23:14:44.929Z,17.50
2017-08-07T23:17:14.392Z,17.60
2017-08-07T23:19:43.907Z,17.50
2017-08-07T23:22:13.760Z,17.50
2017-08-07T23:24:44.445Z,17.50
2017-08-07T23:27:14.354Z,17.50
2017-08-07T23:29:43.898Z,17.50
2017-08-07T23:32:13.722Z,17.50
2017-08-07T23:34:44.218Z,17.50
2017-08-07T23:37:13.741Z,17.50
2017-08-07T23:39:43.266Z,17.60
2017-08-07T23:42:12.787Z,17.60
2017-08-07T23:44:42.286Z,17.70
2017-08-07T23:47:12.338Z,17.70
2017-08-07T23:49:42.193Z,17.70
2017-08-07T23:52:12.031Z,17.70
2017-08-07T23:54:42.219Z,17.70
2017-08-07T23:57:12.119Z,17.60
2017-08-07T23:59:41.962Z,17.50
